Susquehanna — WDD9976 — position and weather

sailwx.info

Track history (hours):
 
Tides and Currents Weather Stations Pressure Air Temp Water Temp Dewpoint Dewpoint Depression Visibility Wind Speed Wind Dir Waves Ship Positions

Susquehanna

Owner: Vane Line Bunkering, Inc., Baltimore, MD. More information available from US FCC via Universal Licensing System and Coast Guard Vessel Documentation Center.

Last reported at 2015-Jan-25 17:28 UTC. Time now 2015-Jan-25 22:21 UTC.
Position N 40°55' W 073°55'.

Length 28 m; draft 4.2 m.

Type: Tug. MMSI: 367318750.

Date/timePositionNaut miles runAvg speedWind from/ knotsBaromVisibWave heightAir tempDewpointWater temp
2015-Jan-25 17:28N 40°55' W 073°55'9 9.5
2015-Jan-25 16:33N 40°47' W 073°60'7 7.2
2015-Jan-25 15:33N 40°40' W 074°02'2 1.5
2015-Jan-25 14:33N 40°40' W 074°00'1 0.7
2015-Jan-25 13:34N 40°40' W 074°01'8 8.2
2015-Jan-25 12:33N 40°38' W 074°12'0 0.1
2015-Jan-25 11:33N 40°38' W 074°12'0 0.0
2015-Jan-25 10:33N 40°38' W 074°12'0 0.0
2015-Jan-25 09:32N 40°38' W 074°12'0 0.0
2015-Jan-25 08:33N 40°38' W 074°12'0 0.0
2015-Jan-25 07:33N 40°38' W 074°12'0 0.0
2015-Jan-25 06:33N 40°38' W 074°12'0 0.0
2015-Jan-25 05:33N 40°38' W 074°12'4 3.6
2015-Jan-25 04:31N 40°39' W 074°07'4 3.8
2015-Jan-25 03:33N 40°39' W 074°02'4 3.9
2015-Jan-25 02:33N 40°43' W 074°01'10 9.8
2015-Jan-25 01:29N 40°53' W 073°56'  
2015-Jan-22 14:33N 40°43' W 074°01'3 3.5
2015-Jan-22 13:33N 40°40' W 074°01'5 4.5
2015-Jan-22 12:33N 40°35' W 074°02'9 6.3
2015-Jan-22 11:10N 40°28' W 073°55'44 7.8
2015-Jan-22 05:27N 39°44' W 073°58'7 7.6
2015-Jan-22 04:32N 39°38' W 074°02'8 7.7
2015-Jan-22 03:32N 39°31' W 074°08'  
2015-Jan-18 19:33N 31°57' W 080°43'9 7.8
2015-Jan-18 18:26N 31°49' W 080°48'288 7.3
2015-Jan-17 03:05N 27°04' W 080°02'4 6.8
2015-Jan-17 02:33N 27°00' W 080°02'7 7.2
2015-Jan-17 01:33N 26°53' W 080°01'8 7.6
2015-Jan-17 00:31N 26°45' W 080°01'10 7.9
2015-Jan-16 23:16N 26°35' W 080°01'5 7.4
2015-Jan-16 22:33N 26°30' W 080°01'7 7.0
2015-Jan-16 21:33N 26°23' W 080°01'7 7.2
2015-Jan-16 20:33N 26°16' W 080°02'7 7.3
2015-Jan-16 19:33N 26°09' W 080°03'7 7.0
2015-Jan-16 18:33N 26°02' W 080°03'7 7.4
2015-Jan-16 17:33N 25°54' W 080°02'8 8.2
2015-Jan-16 16:33N 25°46' W 080°02'8 8.3
2015-Jan-16 15:33N 25°38' W 080°01'  
Track history (hours):
 
Tides and Currents Weather Stations Pressure Air Temp Water Temp Dewpoint Dewpoint Depression Visibility Wind Speed Wind Dir Waves Ship Positions

Susquehanna

Owner: Vane Line Bunkering, Inc., Baltimore, MD. More information available from US FCC via Universal Licensing System and Coast Guard Vessel Documentation Center.

Last reported at 2015-Jan-25 17:28 UTC. Time now 2015-Jan-25 22:21 UTC.
Position N 40°55' W 073°55'.

Length 28 m; draft 4.2 m.

Type: Tug. MMSI: 367318750.

Date/timePositionNaut miles runAvg speedWind from/ knotsBaromVisibWave heightAir tempDewpointWater temp
2015-Jan-25 17:28N 40°55' W 073°55'9 9.5
2015-Jan-25 16:33N 40°47' W 073°60'7 7.2
2015-Jan-25 15:33N 40°40' W 074°02'2 1.5
2015-Jan-25 14:33N 40°40' W 074°00'1 0.7
2015-Jan-25 13:34N 40°40' W 074°01'8 8.2
2015-Jan-25 12:33N 40°38' W 074°12'0 0.1
2015-Jan-25 11:33N 40°38' W 074°12'0 0.0
2015-Jan-25 10:33N 40°38' W 074°12'0 0.0
2015-Jan-25 09:32N 40°38' W 074°12'0 0.0
2015-Jan-25 08:33N 40°38' W 074°12'0 0.0
2015-Jan-25 07:33N 40°38' W 074°12'0 0.0
2015-Jan-25 06:33N 40°38' W 074°12'0 0.0
2015-Jan-25 05:33N 40°38' W 074°12'4 3.6
2015-Jan-25 04:31N 40°39' W 074°07'4 3.8
2015-Jan-25 03:33N 40°39' W 074°02'4 3.9
2015-Jan-25 02:33N 40°43' W 074°01'10 9.8
2015-Jan-25 01:29N 40°53' W 073°56'  
2015-Jan-22 14:33N 40°43' W 074°01'3 3.5
2015-Jan-22 13:33N 40°40' W 074°01'5 4.5
2015-Jan-22 12:33N 40°35' W 074°02'9 6.3
2015-Jan-22 11:10N 40°28' W 073°55'44 7.8
2015-Jan-22 05:27N 39°44' W 073°58'7 7.6
2015-Jan-22 04:32N 39°38' W 074°02'8 7.7
2015-Jan-22 03:32N 39°31' W 074°08'  
2015-Jan-18 19:33N 31°57' W 080°43'9 7.8
2015-Jan-18 18:26N 31°49' W 080°48'288 7.3
2015-Jan-17 03:05N 27°04' W 080°02'4 6.8
2015-Jan-17 02:33N 27°00' W 080°02'7 7.2
2015-Jan-17 01:33N 26°53' W 080°01'8 7.6
2015-Jan-17 00:31N 26°45' W 080°01'10 7.9
2015-Jan-16 23:16N 26°35' W 080°01'5 7.4
2015-Jan-16 22:33N 26°30' W 080°01'7 7.0
2015-Jan-16 21:33N 26°23' W 080°01'7 7.2
2015-Jan-16 20:33N 26°16' W 080°02'7 7.3
2015-Jan-16 19:33N 26°09' W 080°03'7 7.0
2015-Jan-16 18:33N 26°02' W 080°03'7 7.4
2015-Jan-16 17:33N 25°54' W 080°02'8 8.2
2015-Jan-16 16:33N 25°46' W 080°02'8 8.3
2015-Jan-16 15:33N 25°38' W 080°01'  

Dump ship's entire track history